sensor_id;sensor_type;location;lat;lon;timestamp;P1;durP1;ratioP1;P2;durP2;ratioP2
62933;SDS011;49038;47.600;19.242;2023-05-18T00:01:35;3.62;;;1.30;;
62933;SDS011;49038;47.600;19.242;2023-05-18T00:04:41;2.42;;;1.10;;
62933;SDS011;49038;47.600;19.242;2023-05-18T00:07:44;1.15;;;1.05;;
62933;SDS011;49038;47.600;19.242;2023-05-18T00:10:47;1.00;;;1.00;;
62933;SDS011;49038;47.600;19.242;2023-05-18T00:13:49;4.53;;;1.55;;
62933;SDS011;49038;47.600;19.242;2023-05-18T00:16:51;1.95;;;1.37;;
62933;SDS011;49038;47.600;19.242;2023-05-18T00:19:54;2.28;;;1.15;;
62933;SDS011;49038;47.600;19.242;2023-05-18T00:22:59;1.25;;;1.10;;
62933;SDS011;49038;47.600;19.242;2023-05-18T00:26:03;3.55;;;1.35;;
62933;SDS011;49038;47.600;19.242;2023-05-18T00:29:05;1.20;;;1.10;;
62933;SDS011;49038;47.600;19.242;2023-05-18T00:32:08;1.20;;;1.10;;
62933;SDS011;49038;47.600;19.242;2023-05-18T00:35:10;0.68;;;0.68;;
62933;SDS011;49038;47.600;19.242;2023-05-18T00:38:13;3.97;;;1.27;;
62933;SDS011;49038;47.600;19.242;2023-05-18T00:41:18;1.30;;;1.20;;
62933;SDS011;49038;47.600;19.242;2023-05-18T00:44:20;1.58;;;1.27;;
62933;SDS011;49038;47.600;19.242;2023-05-18T00:47:23;4.43;;;2.00;;
62933;SDS011;49038;47.600;19.242;2023-05-18T00:50:25;2.35;;;1.52;;
62933;SDS011;49038;47.600;19.242;2023-05-18T00:53:27;1.10;;;1.00;;
62933;SDS011;49038;47.600;19.242;2023-05-18T00:56:30;1.62;;;1.10;;
62933;SDS011;49038;47.600;19.242;2023-05-18T00:59:35;1.23;;;1.12;;
62933;SDS011;49038;47.600;19.242;2023-05-18T01:02:38;1.00;;;0.90;;
62933;SDS011;49038;47.600;19.242;2023-05-18T01:05:43;0.75;;;0.75;;
62933;SDS011;49038;47.600;19.242;2023-05-18T01:08:46;1.00;;;0.90;;
62933;SDS011;49038;47.600;19.242;2023-05-18T01:15:34;0.93;;;0.88;;
62933;SDS011;49038;47.600;19.242;2023-05-18T01:18:40;1.15;;;1.05;;
62933;SDS011;49038;47.600;19.242;2023-05-18T01:25:33;1.08;;;1.00;;
62933;SDS011;49038;47.600;19.242;2023-05-18T01:28:51;1.23;;;1.10;;
62933;SDS011;49038;47.600;19.242;2023-05-18T01:31:56;1.45;;;1.12;;
62933;SDS011;49038;47.600;19.242;2023-05-18T01:34:58;1.42;;;0.90;;
62933;SDS011;49038;47.600;19.242;2023-05-18T01:38:01;2.62;;;1.17;;
62933;SDS011;49038;47.600;19.242;2023-05-18T01:41:07;1.12;;;1.02;;
62933;SDS011;49038;47.600;19.242;2023-05-18T01:44:18;0.85;;;0.70;;
62933;SDS011;49038;47.600;19.242;2023-05-18T01:47:24;1.17;;;0.90;;
62933;SDS011;49038;47.600;19.242;2023-05-18T01:50:30;1.52;;;1.00;;
62933;SDS011;49038;47.600;19.242;2023-05-18T01:53:41;0.90;;;0.90;;
62933;SDS011;49038;47.600;19.242;2023-05-18T01:56:46;0.80;;;0.80;;
62933;SDS011;49038;47.600;19.242;2023-05-18T01:59:49;3.03;;;0.90;;
62933;SDS011;49038;47.600;19.242;2023-05-18T02:02:52;1.00;;;0.90;;
62933;SDS011;49038;47.600;19.242;2023-05-18T02:05:54;2.42;;;0.98;;
62933;SDS011;49038;47.600;19.242;2023-05-18T02:08:57;2.17;;;0.70;;
62933;SDS011;49038;47.600;19.242;2023-05-18T02:11:59;0.82;;;0.70;;
62933;SDS011;49038;47.600;19.242;2023-05-18T02:15:01;0.70;;;0.70;;
62933;SDS011;49038;47.600;19.242;2023-05-18T02:18:06;1.50;;;1.00;;
62933;SDS011;49038;47.600;19.242;2023-05-18T02:21:09;0.80;;;0.70;;
62933;SDS011;49038;47.600;19.242;2023-05-18T02:24:11;0.73;;;0.70;;
62933;SDS011;49038;47.600;19.242;2023-05-18T02:27:14;0.98;;;0.70;;
62933;SDS011;49038;47.600;19.242;2023-05-18T02:30:16;0.73;;;0.70;;
62933;SDS011;49038;47.600;19.242;2023-05-18T02:33:19;0.68;;;0.68;;
62933;SDS011;49038;47.600;19.242;2023-05-18T02:36:27;2.33;;;1.30;;
62933;SDS011;49038;47.600;19.242;2023-05-18T02:39:38;1.85;;;1.42;;
62933;SDS011;49038;47.600;19.242;2023-05-18T02:42:40;0.80;;;0.80;;
62933;SDS011;49038;47.600;19.242;2023-05-18T02:45:43;0.68;;;0.68;;
62933;SDS011;49038;47.600;19.242;2023-05-18T02:48:45;0.80;;;0.80;;
62933;SDS011;49038;47.600;19.242;2023-05-18T02:51:47;1.12;;;1.05;;
62933;SDS011;49038;47.600;19.242;2023-05-18T02:54:50;1.85;;;0.77;;
62933;SDS011;49038;47.600;19.242;2023-05-18T02:57:55;0.75;;;0.70;;
62933;SDS011;49038;47.600;19.242;2023-05-18T03:00:58;1.10;;;1.00;;
62933;SDS011;49038;47.600;19.242;2023-05-18T03:04:01;3.12;;;1.27;;
62933;SDS011;49038;47.600;19.242;2023-05-18T03:07:03;0.90;;;0.90;;
62933;SDS011;49038;47.600;19.242;2023-05-18T03:10:08;1.92;;;0.90;;
62933;SDS011;49038;47.600;19.242;2023-05-18T03:13:11;1.15;;;0.90;;
62933;SDS011;49038;47.600;19.242;2023-05-18T03:16:13;0.70;;;0.70;;
62933;SDS011;49038;47.600;19.242;2023-05-18T03:19:16;0.70;;;0.70;;
62933;SDS011;49038;47.600;19.242;2023-05-18T03:22:18;0.90;;;0.80;;
62933;SDS011;49038;47.600;19.242;2023-05-18T03:25:20;0.77;;;0.77;;
62933;SDS011;49038;47.600;19.242;2023-05-18T03:28:23;0.90;;;0.80;;
62933;SDS011;49038;47.600;19.242;2023-05-18T03:31:25;0.70;;;0.70;;
62933;SDS011;49038;47.600;19.242;2023-05-18T03:34:28;0.73;;;0.70;;
62933;SDS011;49038;47.600;19.242;2023-05-18T03:37:30;4.03;;;0.80;;
62933;SDS011;49038;47.600;19.242;2023-05-18T03:40:32;0.60;;;0.60;;
62933;SDS011;49038;47.600;19.242;2023-05-18T03:43:34;3.05;;;0.80;;
62933;SDS011;49038;47.600;19.242;2023-05-18T03:46:37;1.12;;;0.70;;
62933;SDS011;49038;47.600;19.242;2023-05-18T03:49:39;0.50;;;0.50;;
62933;SDS011;49038;47.600;19.242;2023-05-18T03:52:42;0.57;;;0.57;;
62933;SDS011;49038;47.600;19.242;2023-05-18T03:55:45;0.50;;;0.50;;
62933;SDS011;49038;47.600;19.242;2023-05-18T03:58:48;0.80;;;0.70;;
62933;SDS011;49038;47.600;19.242;2023-05-18T04:01:52;1.25;;;0.70;;
62933;SDS011;49038;47.600;19.242;2023-05-18T04:04:55;0.73;;;0.73;;
62933;SDS011;49038;47.600;19.242;2023-05-18T04:07:58;0.80;;;0.80;;
62933;SDS011;49038;47.600;19.242;2023-05-18T04:11:01;0.73;;;0.68;;
62933;SDS011;49038;47.600;19.242;2023-05-18T04:14:03;0.80;;;0.80;;
62933;SDS011;49038;47.600;19.242;2023-05-18T04:17:06;0.70;;;0.70;;
62933;SDS011;49038;47.600;19.242;2023-05-18T04:20:08;2.17;;;1.02;;
62933;SDS011;49038;47.600;19.242;2023-05-18T04:23:14;0.80;;;0.80;;
62933;SDS011;49038;47.600;19.242;2023-05-18T04:26:16;0.98;;;0.80;;
62933;SDS011;49038;47.600;19.242;2023-05-18T04:29:21;0.80;;;0.80;;
62933;SDS011;49038;47.600;19.242;2023-05-18T04:32:23;1.90;;;0.70;;
62933;SDS011;49038;47.600;19.242;2023-05-18T04:35:29;0.85;;;0.82;;
62933;SDS011;49038;47.600;19.242;2023-05-18T04:38:33;0.70;;;0.70;;
62933;SDS011;49038;47.600;19.242;2023-05-18T04:41:35;3.90;;;1.35;;
62933;SDS011;49038;47.600;19.242;2023-05-18T04:44:37;0.65;;;0.65;;
62933;SDS011;49038;47.600;19.242;2023-05-18T04:47:40;1.75;;;0.95;;
62933;SDS011;49038;47.600;19.242;2023-05-18T04:50:42;0.60;;;0.60;;
62933;SDS011;49038;47.600;19.242;2023-05-18T04:53:44;0.82;;;0.80;;
62933;SDS011;49038;47.600;19.242;2023-05-18T04:56:46;0.80;;;0.80;;
62933;SDS011;49038;47.600;19.242;2023-05-18T04:59:49;1.00;;;0.85;;
62933;SDS011;49038;47.600;19.242;2023-05-18T05:02:51;1.30;;;1.20;;
62933;SDS011;49038;47.600;19.242;2023-05-18T05:05:54;1.67;;;1.52;;
62933;SDS011;49038;47.600;19.242;2023-05-18T05:08:56;9.60;;;1.90;;
62933;SDS011;49038;47.600;19.242;2023-05-18T05:11:58;4.55;;;2.50;;
62933;SDS011;49038;47.600;19.242;2023-05-18T05:15:00;2.25;;;1.67;;
62933;SDS011;49038;47.600;19.242;2023-05-18T05:18:03;8.15;;;5.12;;
62933;SDS011;49038;47.600;19.242;2023-05-18T05:21:05;7.62;;;2.42;;
62933;SDS011;49038;47.600;19.242;2023-05-18T05:24:07;2.53;;;1.20;;
62933;SDS011;49038;47.600;19.242;2023-05-18T05:27:10;0.98;;;0.77;;
62933;SDS011;49038;47.600;19.242;2023-05-18T05:30:12;1.83;;;0.95;;
62933;SDS011;49038;47.600;19.242;2023-05-18T05:33:14;0.88;;;0.80;;
62933;SDS011;49038;47.600;19.242;2023-05-18T05:36:18;1.10;;;0.95;;
62933;SDS011;49038;47.600;19.242;2023-05-18T05:39:20;0.95;;;0.85;;
62933;SDS011;49038;47.600;19.242;2023-05-18T05:42:22;0.80;;;0.80;;
62933;SDS011;49038;47.600;19.242;2023-05-18T05:45:26;0.80;;;0.80;;
62933;SDS011;49038;47.600;19.242;2023-05-18T05:48:32;0.60;;;0.60;;
62933;SDS011;49038;47.600;19.242;2023-05-18T05:51:34;0.93;;;0.75;;
62933;SDS011;49038;47.600;19.242;2023-05-18T05:54:36;0.70;;;0.70;;
62933;SDS011;49038;47.600;19.242;2023-05-18T05:57:38;3.33;;;0.75;;
62933;SDS011;49038;47.600;19.242;2023-05-18T06:00:43;2.50;;;0.75;;
62933;SDS011;49038;47.600;19.242;2023-05-18T06:03:47;1.05;;;0.70;;
62933;SDS011;49038;47.600;19.242;2023-05-18T06:06:49;0.65;;;0.60;;
62933;SDS011;49038;47.600;19.242;2023-05-18T06:09:52;0.90;;;0.90;;
62933;SDS011;49038;47.600;19.242;2023-05-18T06:12:54;0.98;;;0.85;;
62933;SDS011;49038;47.600;19.242;2023-05-18T06:15:57;0.75;;;0.75;;
62933;SDS011;49038;47.600;19.242;2023-05-18T06:18:59;0.98;;;0.90;;
62933;SDS011;49038;47.600;19.242;2023-05-18T06:22:01;1.33;;;0.60;;
62933;SDS011;49038;47.600;19.242;2023-05-18T06:25:04;0.60;;;0.60;;
62933;SDS011;49038;47.600;19.242;2023-05-18T06:28:06;0.50;;;0.50;;
62933;SDS011;49038;47.600;19.242;2023-05-18T06:31:09;0.65;;;0.62;;
62933;SDS011;49038;47.600;19.242;2023-05-18T06:34:11;1.35;;;0.90;;
62933;SDS011;49038;47.600;19.242;2023-05-18T06:37:13;1.23;;;0.80;;
62933;SDS011;49038;47.600;19.242;2023-05-18T06:40:16;3.60;;;1.45;;
62933;SDS011;49038;47.600;19.242;2023-05-18T06:43:18;9.45;;;2.12;;
62933;SDS011;49038;47.600;19.242;2023-05-18T06:46:21;2.42;;;1.05;;
62933;SDS011;49038;47.600;19.242;2023-05-18T06:49:24;1.67;;;1.45;;
62933;SDS011;49038;47.600;19.242;2023-05-18T06:52:26;3.55;;;2.05;;
62933;SDS011;49038;47.600;19.242;2023-05-18T06:55:28;1.52;;;1.17;;
62933;SDS011;49038;47.600;19.242;2023-05-18T06:58:31;1.10;;;1.00;;
62933;SDS011;49038;47.600;19.242;2023-05-18T07:01:33;2.70;;;1.12;;
62933;SDS011;49038;47.600;19.242;2023-05-18T07:04:36;1.10;;;1.00;;
62933;SDS011;49038;47.600;19.242;2023-05-18T07:07:38;1.23;;;0.88;;
62933;SDS011;49038;47.600;19.242;2023-05-18T07:10:40;0.82;;;0.75;;
62933;SDS011;49038;47.600;19.242;2023-05-18T07:13:43;0.62;;;0.62;;
62933;SDS011;49038;47.600;19.242;2023-05-18T07:16:45;1.08;;;0.70;;
62933;SDS011;49038;47.600;19.242;2023-05-18T07:19:48;1.25;;;0.90;;
62933;SDS011;49038;47.600;19.242;2023-05-18T07:22:50;0.80;;;0.60;;
62933;SDS011;49038;47.600;19.242;2023-05-18T07:25:52;0.93;;;0.68;;
62933;SDS011;49038;47.600;19.242;2023-05-18T07:28:55;1.30;;;0.60;;
62933;SDS011;49038;47.600;19.242;2023-05-18T07:31:57;0.68;;;0.62;;
62933;SDS011;49038;47.600;19.242;2023-05-18T07:34:59;1.17;;;0.80;;
62933;SDS011;49038;47.600;19.242;2023-05-18T07:38:02;1.02;;;0.80;;
62933;SDS011;49038;47.600;19.242;2023-05-18T07:41:04;1.40;;;0.80;;
62933;SDS011;49038;47.600;19.242;2023-05-18T07:44:06;0.85;;;0.75;;
62933;SDS011;49038;47.600;19.242;2023-05-18T07:47:08;0.55;;;0.55;;
62933;SDS011;49038;47.600;19.242;2023-05-18T07:50:12;0.95;;;0.93;;
62933;SDS011;49038;47.600;19.242;2023-05-18T07:53:14;0.60;;;0.60;;
62933;SDS011;49038;47.600;19.242;2023-05-18T07:56:17;0.60;;;0.60;;
62933;SDS011;49038;47.600;19.242;2023-05-18T07:59:19;0.80;;;0.80;;
62933;SDS011;49038;47.600;19.242;2023-05-18T08:02:21;0.55;;;0.55;;
62933;SDS011;49038;47.600;19.242;2023-05-18T08:05:25;0.62;;;0.60;;
62933;SDS011;49038;47.600;19.242;2023-05-18T08:08:27;0.77;;;0.70;;
62933;SDS011;49038;47.600;19.242;2023-05-18T08:11:29;0.60;;;0.60;;
62933;SDS011;49038;47.600;19.242;2023-05-18T08:14:31;0.68;;;0.68;;
62933;SDS011;49038;47.600;19.242;2023-05-18T08:17:34;0.70;;;0.70;;
62933;SDS011;49038;47.600;19.242;2023-05-18T08:20:36;1.95;;;1.10;;
62933;SDS011;49038;47.600;19.242;2023-05-18T08:23:39;2.95;;;1.67;;
62933;SDS011;49038;47.600;19.242;2023-05-18T08:26:42;2.25;;;1.62;;
62933;SDS011;49038;47.600;19.242;2023-05-18T08:29:45;0.95;;;0.90;;
62933;SDS011;49038;47.600;19.242;2023-05-18T08:32:47;1.15;;;0.98;;
62933;SDS011;49038;47.600;19.242;2023-05-18T08:35:49;1.23;;;0.98;;
62933;SDS011;49038;47.600;19.242;2023-05-18T08:38:52;5.32;;;1.20;;
62933;SDS011;49038;47.600;19.242;2023-05-18T08:41:56;1.30;;;1.20;;
62933;SDS011;49038;47.600;19.242;2023-05-18T08:45:09;0.50;;;0.50;;
62933;SDS011;49038;47.600;19.242;2023-05-18T08:48:14;0.80;;;0.80;;
62933;SDS011;49038;47.600;19.242;2023-05-18T08:51:18;0.80;;;0.80;;
62933;SDS011;49038;47.600;19.242;2023-05-18T08:54:22;2.35;;;1.73;;
62933;SDS011;49038;47.600;19.242;2023-05-18T08:57:25;6.07;;;3.03;;
62933;SDS011;49038;47.600;19.242;2023-05-18T09:00:31;1.65;;;1.23;;
62933;SDS011;49038;47.600;19.242;2023-05-18T09:03:34;1.60;;;1.37;;
62933;SDS011;49038;47.600;19.242;2023-05-18T09:06:37;2.17;;;1.17;;
62933;SDS011;49038;47.600;19.242;2023-05-18T09:09:40;2.12;;;1.20;;
62933;SDS011;49038;47.600;19.242;2023-05-18T09:12:43;0.65;;;0.65;;
62933;SDS011;49038;47.600;19.242;2023-05-18T09:15:47;1.95;;;1.00;;
62933;SDS011;49038;47.600;19.242;2023-05-18T09:18:52;0.88;;;0.73;;
62933;SDS011;49038;47.600;19.242;2023-05-18T09:21:54;1.10;;;1.00;;
62933;SDS011;49038;47.600;19.242;2023-05-18T09:24:56;1.40;;;1.30;;
62933;SDS011;49038;47.600;19.242;2023-05-18T09:27:59;0.90;;;0.90;;
62933;SDS011;49038;47.600;19.242;2023-05-18T09:31:04;2.28;;;1.10;;
62933;SDS011;49038;47.600;19.242;2023-05-18T09:34:08;1.02;;;0.85;;
62933;SDS011;49038;47.600;19.242;2023-05-18T09:37:11;1.20;;;1.10;;
62933;SDS011;49038;47.600;19.242;2023-05-18T09:40:17;0.80;;;0.80;;
62933;SDS011;49038;47.600;19.242;2023-05-18T09:43:21;0.75;;;0.75;;
62933;SDS011;49038;47.600;19.242;2023-05-18T09:46:23;1.48;;;1.27;;
62933;SDS011;49038;47.600;19.242;2023-05-18T09:49:29;1.10;;;1.00;;
62933;SDS011;49038;47.600;19.242;2023-05-18T09:52:39;0.85;;;0.85;;
62933;SDS011;49038;47.600;19.242;2023-05-18T09:55:47;1.55;;;0.93;;
62933;SDS011;49038;47.600;19.242;2023-05-18T09:58:50;1.05;;;0.73;;
62933;SDS011;49038;47.600;19.242;2023-05-18T10:01:59;0.80;;;0.77;;
62933;SDS011;49038;47.600;19.242;2023-05-18T10:05:02;0.68;;;0.68;;
62933;SDS011;49038;47.600;19.242;2023-05-18T10:08:05;0.70;;;0.70;;
62933;SDS011;49038;47.600;19.242;2023-05-18T10:11:08;0.75;;;0.75;;
62933;SDS011;49038;47.600;19.242;2023-05-18T10:14:10;1.15;;;0.80;;
62933;SDS011;49038;47.600;19.242;2023-05-18T10:17:13;1.00;;;0.85;;
62933;SDS011;49038;47.600;19.242;2023-05-18T10:20:19;0.70;;;0.70;;
62933;SDS011;49038;47.600;19.242;2023-05-18T10:23:22;0.77;;;0.60;;
62933;SDS011;49038;47.600;19.242;2023-05-18T10:26:25;0.90;;;0.90;;
62933;SDS011;49038;47.600;19.242;2023-05-18T10:29:29;2.00;;;0.88;;
62933;SDS011;49038;47.600;19.242;2023-05-18T10:32:34;0.60;;;0.60;;
62933;SDS011;49038;47.600;19.242;2023-05-18T10:35:37;1.30;;;0.70;;
62933;SDS011;49038;47.600;19.242;2023-05-18T10:38:39;0.90;;;0.70;;
62933;SDS011;49038;47.600;19.242;2023-05-18T10:41:46;4.53;;;0.80;;
62933;SDS011;49038;47.600;19.242;2023-05-18T10:44:49;1.17;;;0.75;;
62933;SDS011;49038;47.600;19.242;2023-05-18T10:47:51;0.85;;;0.85;;
62933;SDS011;49038;47.600;19.242;2023-05-18T10:50:56;0.60;;;0.60;;
62933;SDS011;49038;47.600;19.242;2023-05-18T10:54:06;0.60;;;0.60;;
62933;SDS011;49038;47.600;19.242;2023-05-18T10:57:13;2.47;;;0.80;;
62933;SDS011;49038;47.600;19.242;2023-05-18T11:00:17;1.23;;;0.80;;
62933;SDS011;49038;47.600;19.242;2023-05-18T11:03:21;4.00;;;0.80;;
62933;SDS011;49038;47.600;19.242;2023-05-18T11:06:23;2.12;;;1.60;;
62933;SDS011;49038;47.600;19.242;2023-05-18T11:09:25;0.80;;;0.80;;
62933;SDS011;49038;47.600;19.242;2023-05-18T11:12:30;0.85;;;0.80;;
62933;SDS011;49038;47.600;19.242;2023-05-18T11:18:52;0.80;;;0.80;;
62933;SDS011;49038;47.600;19.242;2023-05-18T11:21:55;0.70;;;0.70;;
62933;SDS011;49038;47.600;19.242;2023-05-18T11:24:57;0.82;;;0.80;;
62933;SDS011;49038;47.600;19.242;2023-05-18T11:28:05;0.70;;;0.70;;
62933;SDS011;49038;47.600;19.242;2023-05-18T11:31:09;0.95;;;0.80;;
62933;SDS011;49038;47.600;19.242;2023-05-18T11:40:43;0.73;;;0.60;;
62933;SDS011;49038;47.600;19.242;2023-05-18T11:43:45;0.80;;;0.80;;
62933;SDS011;49038;47.600;19.242;2023-05-18T11:47:19;0.77;;;0.75;;
62933;SDS011;49038;47.600;19.242;2023-05-18T11:50:21;0.65;;;0.62;;
62933;SDS011;49038;47.600;19.242;2023-05-18T11:53:24;0.80;;;0.80;;
62933;SDS011;49038;47.600;19.242;2023-05-18T11:56:30;0.77;;;0.77;;
62933;SDS011;49038;47.600;19.242;2023-05-18T11:59:39;1.23;;;1.00;;
62933;SDS011;49038;47.600;19.242;2023-05-18T12:02:43;0.85;;;0.80;;
62933;SDS011;49038;47.600;19.242;2023-05-18T12:05:46;1.08;;;0.70;;
62933;SDS011;49038;47.600;19.242;2023-05-18T12:08:50;1.15;;;0.70;;
62933;SDS011;49038;47.600;19.242;2023-05-18T12:11:53;0.90;;;0.80;;
62933;SDS011;49038;47.600;19.242;2023-05-18T12:14:59;0.60;;;0.60;;
62933;SDS011;49038;47.600;19.242;2023-05-18T12:18:02;0.80;;;0.68;;
62933;SDS011;49038;47.600;19.242;2023-05-18T12:21:05;1.00;;;0.90;;
62933;SDS011;49038;47.600;19.242;2023-05-18T12:24:07;1.08;;;0.98;;
62933;SDS011;49038;47.600;19.242;2023-05-18T12:27:10;0.90;;;0.82;;
62933;SDS011;49038;47.600;19.242;2023-05-18T12:33:18;0.90;;;0.90;;
62933;SDS011;49038;47.600;19.242;2023-05-18T12:36:21;1.30;;;1.10;;
62933;SDS011;49038;47.600;19.242;2023-05-18T12:39:24;0.80;;;0.80;;
62933;SDS011;49038;47.600;19.242;2023-05-18T12:42:29;0.62;;;0.62;;
62933;SDS011;49038;47.600;19.242;2023-05-18T12:45:32;1.60;;;0.90;;
62933;SDS011;49038;47.600;19.242;2023-05-18T12:48:36;0.73;;;0.70;;
62933;SDS011;49038;47.600;19.242;2023-05-18T12:51:45;2.28;;;1.45;;
62933;SDS011;49038;47.600;19.242;2023-05-18T12:54:51;3.42;;;1.25;;
62933;SDS011;49038;47.600;19.242;2023-05-18T12:57:58;4.95;;;2.55;;
62933;SDS011;49038;47.600;19.242;2023-05-18T13:01:08;8.02;;;3.28;;
62933;SDS011;49038;47.600;19.242;2023-05-18T13:04:11;2.33;;;1.40;;
62933;SDS011;49038;47.600;19.242;2023-05-18T13:07:14;3.42;;;2.10;;
62933;SDS011;49038;47.600;19.242;2023-05-18T13:10:16;2.87;;;2.00;;
62933;SDS011;49038;47.600;19.242;2023-05-18T13:13:20;1.42;;;1.30;;
62933;SDS011;49038;47.600;19.242;2023-05-18T13:16:22;2.67;;;1.80;;
62933;SDS011;49038;47.600;19.242;2023-05-18T13:19:25;2.22;;;1.20;;
62933;SDS011;49038;47.600;19.242;2023-05-18T13:22:27;4.93;;;1.70;;
62933;SDS011;49038;47.600;19.242;2023-05-18T13:25:30;3.12;;;1.77;;
62933;SDS011;49038;47.600;19.242;2023-05-18T13:28:33;1.10;;;0.80;;
62933;SDS011;49038;47.600;19.242;2023-05-18T13:31:36;1.35;;;0.82;;
62933;SDS011;49038;47.600;19.242;2023-05-18T13:34:38;1.17;;;0.95;;
62933;SDS011;49038;47.600;19.242;2023-05-18T13:37:41;1.20;;;1.00;;
62933;SDS011;49038;47.600;19.242;2023-05-18T13:40:44;2.22;;;0.70;;
62933;SDS011;49038;47.600;19.242;2023-05-18T13:43:47;0.77;;;0.77;;
62933;SDS011;49038;47.600;19.242;2023-05-18T13:46:49;1.40;;;0.80;;
62933;SDS011;49038;47.600;19.242;2023-05-18T13:49:52;0.68;;;0.68;;
62933;SDS011;49038;47.600;19.242;2023-05-18T13:52:54;1.00;;;0.90;;
62933;SDS011;49038;47.600;19.242;2023-05-18T13:55:57;5.18;;;1.10;;
62933;SDS011;49038;47.600;19.242;2023-05-18T13:58:59;1.30;;;0.80;;
62933;SDS011;49038;47.600;19.242;2023-05-18T14:02:02;1.00;;;0.90;;
62933;SDS011;49038;47.600;19.242;2023-05-18T14:05:05;1.40;;;0.80;;
62933;SDS011;49038;47.600;19.242;2023-05-18T14:08:09;0.80;;;0.80;;
62933;SDS011;49038;47.600;19.242;2023-05-18T14:11:11;0.68;;;0.68;;
62933;SDS011;49038;47.600;19.242;2023-05-18T14:14:14;1.42;;;1.30;;
62933;SDS011;49038;47.600;19.242;2023-05-18T14:17:16;1.60;;;0.80;;
62933;SDS011;49038;47.600;19.242;2023-05-18T14:20:19;1.80;;;0.90;;
62933;SDS011;49038;47.600;19.242;2023-05-18T14:23:21;1.20;;;1.00;;
62933;SDS011;49038;47.600;19.242;2023-05-18T14:26:25;1.75;;;1.35;;
62933;SDS011;49038;47.600;19.242;2023-05-18T14:29:27;1.50;;;1.05;;
62933;SDS011;49038;47.600;19.242;2023-05-18T14:32:29;1.17;;;1.08;;
62933;SDS011;49038;47.600;19.242;2023-05-18T14:35:32;3.65;;;1.23;;
62933;SDS011;49038;47.600;19.242;2023-05-18T14:38:34;1.33;;;1.23;;
62933;SDS011;49038;47.600;19.242;2023-05-18T14:41:36;0.95;;;0.88;;
62933;SDS011;49038;47.600;19.242;2023-05-18T14:44:39;7.55;;;1.30;;
62933;SDS011;49038;47.600;19.242;2023-05-18T14:47:41;1.17;;;0.90;;
62933;SDS011;49038;47.600;19.242;2023-05-18T14:50:43;2.00;;;1.40;;
62933;SDS011;49038;47.600;19.242;2023-05-18T14:53:45;1.40;;;1.00;;
62933;SDS011;49038;47.600;19.242;2023-05-18T14:56:48;1.98;;;0.90;;
62933;SDS011;49038;47.600;19.242;2023-05-18T14:59:50;1.10;;;1.00;;
62933;SDS011;49038;47.600;19.242;2023-05-18T15:02:52;1.08;;;0.98;;
62933;SDS011;49038;47.600;19.242;2023-05-18T15:05:55;0.73;;;0.70;;
62933;SDS011;49038;47.600;19.242;2023-05-18T15:08:57;0.60;;;0.60;;
62933;SDS011;49038;47.600;19.242;2023-05-18T15:11:59;0.62;;;0.62;;
62933;SDS011;49038;47.600;19.242;2023-05-18T15:15:01;2.03;;;1.33;;
62933;SDS011;49038;47.600;19.242;2023-05-18T15:18:04;4.07;;;2.47;;
62933;SDS011;49038;47.600;19.242;2023-05-18T15:21:06;5.87;;;3.17;;
62933;SDS011;49038;47.600;19.242;2023-05-18T15:24:08;4.65;;;2.97;;
62933;SDS011;49038;47.600;19.242;2023-05-18T15:27:11;0.65;;;0.65;;
62933;SDS011;49038;47.600;19.242;2023-05-18T15:30:13;0.52;;;0.52;;
62933;SDS011;49038;47.600;19.242;2023-05-18T15:33:15;1.85;;;1.20;;
62933;SDS011;49038;47.600;19.242;2023-05-18T15:36:18;3.62;;;2.42;;
62933;SDS011;49038;47.600;19.242;2023-05-18T15:39:22;2.78;;;1.80;;
62933;SDS011;49038;47.600;19.242;2023-05-18T15:42:24;2.67;;;1.73;;
62933;SDS011;49038;47.600;19.242;2023-05-18T15:45:27;1.55;;;1.30;;
62933;SDS011;49038;47.600;19.242;2023-05-18T15:48:29;3.90;;;2.25;;
62933;SDS011;49038;47.600;19.242;2023-05-18T15:51:32;2.60;;;1.58;;
62933;SDS011;49038;47.600;19.242;2023-05-18T15:54:34;5.05;;;1.95;;
62933;SDS011;49038;47.600;19.242;2023-05-18T15:57:37;3.60;;;1.48;;
62933;SDS011;49038;47.600;19.242;2023-05-18T16:00:39;12.90;;;1.90;;
62933;SDS011;49038;47.600;19.242;2023-05-18T16:03:41;1.67;;;1.45;;
62933;SDS011;49038;47.600;19.242;2023-05-18T16:06:44;5.87;;;2.80;;
62933;SDS011;49038;47.600;19.242;2023-05-18T16:09:47;7.43;;;2.97;;
62933;SDS011;49038;47.600;19.242;2023-05-18T16:12:49;3.65;;;2.80;;
62933;SDS011;49038;47.600;19.242;2023-05-18T16:15:51;6.28;;;3.37;;
62933;SDS011;49038;47.600;19.242;2023-05-18T16:18:54;7.07;;;4.22;;
62933;SDS011;49038;47.600;19.242;2023-05-18T16:21:57;5.45;;;2.58;;
62933;SDS011;49038;47.600;19.242;2023-05-18T16:24:59;10.48;;;4.70;;
62933;SDS011;49038;47.600;19.242;2023-05-18T16:28:01;5.85;;;1.90;;
62933;SDS011;49038;47.600;19.242;2023-05-18T16:31:04;2.90;;;1.50;;
62933;SDS011;49038;47.600;19.242;2023-05-18T16:34:11;5.45;;;3.70;;
62933;SDS011;49038;47.600;19.242;2023-05-18T16:37:14;1.33;;;1.23;;
62933;SDS011;49038;47.600;19.242;2023-05-18T16:40:16;4.93;;;3.25;;
62933;SDS011;49038;47.600;19.242;2023-05-18T16:43:18;3.20;;;2.08;;
62933;SDS011;49038;47.600;19.242;2023-05-18T16:46:21;2.60;;;1.40;;
62933;SDS011;49038;47.600;19.242;2023-05-18T16:49:25;1.60;;;1.20;;
62933;SDS011;49038;47.600;19.242;2023-05-18T16:52:27;1.20;;;1.02;;
62933;SDS011;49038;47.600;19.242;2023-05-18T16:55:30;2.35;;;1.50;;
62933;SDS011;49038;47.600;19.242;2023-05-18T16:58:32;2.00;;;1.50;;
62933;SDS011;49038;47.600;19.242;2023-05-18T17:01:34;1.60;;;1.48;;
62933;SDS011;49038;47.600;19.242;2023-05-18T17:04:36;9.65;;;3.92;;
62933;SDS011;49038;47.600;19.242;2023-05-18T17:07:42;5.53;;;3.35;;
62933;SDS011;49038;47.600;19.242;2023-05-18T17:10:44;7.95;;;4.10;;
62933;SDS011;49038;47.600;19.242;2023-05-18T17:13:46;4.62;;;3.28;;
62933;SDS011;49038;47.600;19.242;2023-05-18T17:16:48;1.77;;;1.17;;
62933;SDS011;49038;47.600;19.242;2023-05-18T17:19:51;5.43;;;3.22;;
62933;SDS011;49038;47.600;19.242;2023-05-18T17:22:53;2.90;;;2.47;;
62933;SDS011;49038;47.600;19.242;2023-05-18T17:25:55;1.98;;;1.67;;
62933;SDS011;49038;47.600;19.242;2023-05-18T17:29:07;10.75;;;2.22;;
62933;SDS011;49038;47.600;19.242;2023-05-18T17:32:09;3.80;;;2.20;;
62933;SDS011;49038;47.600;19.242;2023-05-18T17:35:11;4.62;;;2.78;;
62933;SDS011;49038;47.600;19.242;2023-05-18T17:38:15;3.95;;;2.45;;
62933;SDS011;49038;47.600;19.242;2023-05-18T17:41:17;2.78;;;1.50;;
62933;SDS011;49038;47.600;19.242;2023-05-18T17:44:22;1.17;;;1.00;;
62933;SDS011;49038;47.600;19.242;2023-05-18T17:47:25;1.75;;;1.40;;
62933;SDS011;49038;47.600;19.242;2023-05-18T17:50:27;2.08;;;1.52;;
62933;SDS011;49038;47.600;19.242;2023-05-18T17:53:29;1.83;;;1.60;;
62933;SDS011;49038;47.600;19.242;2023-05-18T17:56:32;2.03;;;1.50;;
62933;SDS011;49038;47.600;19.242;2023-05-18T17:59:35;2.37;;;1.42;;
62933;SDS011;49038;47.600;19.242;2023-05-18T18:02:38;1.75;;;1.45;;
62933;SDS011;49038;47.600;19.242;2023-05-18T18:05:42;2.47;;;1.87;;
62933;SDS011;49038;47.600;19.242;2023-05-18T18:08:44;3.58;;;2.10;;
62933;SDS011;49038;47.600;19.242;2023-05-18T18:11:47;8.57;;;1.75;;
62933;SDS011;49038;47.600;19.242;2023-05-18T18:14:49;1.87;;;1.40;;
62933;SDS011;49038;47.600;19.242;2023-05-18T18:17:52;2.60;;;1.85;;
62933;SDS011;49038;47.600;19.242;2023-05-18T18:20:55;2.45;;;1.80;;
62933;SDS011;49038;47.600;19.242;2023-05-18T18:23:57;5.15;;;3.22;;
62933;SDS011;49038;47.600;19.242;2023-05-18T18:27:00;7.68;;;2.78;;